Time;durP1;ratioP1;P1;durP2;ratioP2;P2;SDS_P1;SDS_P2;PMS_P1;PMS_P2;Temp;Humidity;BMP_temperature;BMP_pressure;BME280_temperature;BME280_humidity;BME280_pressure;Samples;Min_cycle;Max_cycle;Signal;HPM_P1;HPM_P2
2023/01/10 00:02:02;;;;;;;17.92;8.23;;;;;;;-6.53;62.59;102613.91;1833505;77;21120;-56
2023/01/10 00:04:31;;;;;;;17.37;5.65;;;;;;;-6.53;62.66;102611.75;1828634;77;21145;-57
2023/01/10 00:06:59;;;;;;;16.87;7.75;;;;;;;-6.52;62.72;102616.09;1831035;77;21074;-59
2023/01/10 00:09:28;;;;;;;19.50;7.85;;;;;;;-6.51;62.77;102618.75;1827783;78;21573;-59
2023/01/10 00:14:43;;;;;;;19.95;7.85;;;;;;;-6.54;62.88;102615.12;1838758;77;21089;-60
2023/01/10 00:17:12;;;;;;;20.52;7.78;;;;;;;-6.54;62.93;102613.84;1834799;77;21102;-60
2023/01/10 00:19:41;;;;;;;24.25;8.70;;;;;;;-6.53;62.87;102611.75;1828389;77;21094;-61
2023/01/10 00:22:10;;;;;;;20.05;6.83;;;;;;;-6.51;62.92;102605.03;1853489;77;21110;-60
2023/01/10 00:24:40;;;;;;;18.92;6.83;;;;;;;-6.51;62.92;102600.81;1862398;77;21659;-56
2023/01/10 00:27:11;;;;;;;19.23;7.58;;;;;;;-6.49;62.77;102601.79;1862681;77;22246;-55
2023/01/10 00:29:39;;;;;;;16.62;8.03;;;;;;;-6.51;62.67;102605.03;1862513;77;21161;-55
2023/01/10 00:32:08;;;;;;;19.87;8.68;;;;;;;-6.55;62.52;102594.11;1862532;77;21186;-54
2023/01/10 00:34:36;;;;;;;20.68;6.83;;;;;;;-6.57;62.46;102607.23;1862398;77;21078;-52
2023/01/10 00:37:05;;;;;;;25.35;10.35;;;;;;;-6.62;62.51;102610.78;1862603;77;21127;-53
2023/01/10 00:39:34;;;;;;;24.65;9.68;;;;;;;-6.66;62.42;102605.89;1862513;77;21030;-54
2023/01/10 00:44:51;;;;;;;12.78;6.08;;;;;;;-6.61;62.49;102599.34;1850575;77;21163;-57
2023/01/10 00:47:39;;;;;;;17.80;8.03;;;;;;;-6.56;62.46;102598.77;1864199;76;21133;-57
2023/01/10 00:50:09;;;;;;;31.93;9.50;;;;;;;-6.53;62.47;102594.68;1864553;77;21223;-56
2023/01/10 00:52:38;;;;;;;21.95;8.25;;;;;;;-6.50;62.52;102594.00;1864447;77;21079;-59
2023/01/10 00:55:07;;;;;;;23.62;9.75;;;;;;;-6.50;62.68;102599.13;1866945;75;21026;-59
2023/01/10 00:57:36;;;;;;;16.17;7.58;;;;;;;-6.50;62.79;102604.25;1865342;75;21078;-59
2023/01/10 01:00:09;;;;;;;26.20;8.90;;;;;;;-6.52;62.88;102592.63;1863978;77;21166;-58
2023/01/10 01:02:37;;;;;;;18.80;7.12;;;;;;;-6.50;62.79;102596.56;1864238;77;21030;-58
2023/01/10 01:05:07;;;;;;;19.17;9.60;;;;;;;-6.51;62.70;102595.69;1860464;77;21122;-58
2023/01/10 01:07:36;;;;;;;21.20;8.85;;;;;;;-6.48;62.48;102589.84;1864496;77;21055;-51
2023/01/10 01:12:53;;;;;;;15.85;7.95;;;;;;;-6.48;62.72;102579.59;1864555;77;21144;-50
2023/01/10 01:15:22;;;;;;;21.30;8.43;;;;;;;-6.46;62.66;102589.54;1864639;77;21501;-48
2023/01/10 01:17:51;;;;;;;20.25;8.10;;;;;;;-6.48;62.71;102581.75;1862293;75;21036;-51
2023/01/10 01:20:20;;;;;;;21.80;9.03;;;;;;;-6.50;62.81;102578.63;1857943;77;21048;-47
2023/01/10 01:22:49;;;;;;;22.07;7.72;;;;;;;-6.52;62.73;102580.21;1857884;77;21024;-49
2023/01/10 01:25:17;;;;;;;17.82;8.50;;;;;;;-6.55;62.81;102582.58;1858108;77;21146;-48
2023/01/10 01:27:46;;;;;;;17.77;7.47;;;;;;;-6.58;62.78;102579.45;1857947;77;21095;-51
2023/01/10 01:30:15;;;;;;;23.42;9.28;;;;;;;-6.62;62.92;102586.44;1858020;77;21126;-51
2023/01/10 01:32:44;;;;;;;40.55;9.10;;;;;;;-6.65;62.96;102571.77;1858155;77;21084;-50
2023/01/10 01:35:15;;;;;;;22.35;7.33;;;;;;;-6.65;62.91;102576.90;1864532;77;21133;-51
2023/01/10 01:37:44;;;;;;;18.23;8.05;;;;;;;-6.67;62.98;102575.92;1864638;77;21082;-51
2023/01/10 01:40:15;;;;;;;19.42;7.47;;;;;;;-6.69;62.82;102577.52;1864574;77;21087;-49
2023/01/10 01:42:45;;;;;;;23.12;10.08;;;;;;;-6.78;62.93;102570.55;1832633;77;21138;-50
2023/01/10 01:45:26;;;;;;;34.38;8.93;;;;;;;-6.85;63.20;102578.64;1864626;77;21544;-49
2023/01/10 01:48:00;;;;;;;23.10;7.78;;;;;;;-6.91;63.39;102577.00;1870035;75;21604;-49
2023/01/10 01:50:44;;;;;;;19.73;7.00;;;;;;;-6.91;63.39;102583.40;1870761;76;21122;-50
2023/01/10 01:53:24;;;;;;;23.20;8.73;;;;;;;-6.93;63.48;102581.11;1867062;75;21141;-55
2023/01/10 01:55:56;;;;;;;18.92;7.60;;;;;;;-6.94;63.60;102582.80;1869295;75;21154;-58
2023/01/10 01:58:28;;;;;;;17.90;7.97;;;;;;;-6.93;63.81;102582.02;1864302;77;21129;-57
2023/01/10 02:00:57;;;;;;;28.00;9.55;;;;;;;-6.92;63.91;102579.05;1864112;76;21130;-58
2023/01/10 02:03:27;;;;;;;26.60;7.37;;;;;;;-6.93;63.92;102582.39;1864495;75;21047;-55
2023/01/10 02:05:56;;;;;;;14.70;7.67;;;;;;;-6.89;63.95;102577.97;1864321;77;21134;-55
2023/01/10 02:08:25;;;;;;;13.20;7.42;;;;;;;-6.84;63.91;102573.99;1864227;77;21067;-56
2023/01/10 02:11:00;;;;;;;23.20;7.22;;;;;;;-6.81;63.81;102583.16;1864208;77;21161;-56
2023/01/10 02:13:30;;;;;;;26.77;8.48;;;;;;;-6.78;63.74;102573.11;1863879;77;21141;-56
2023/01/10 02:15:59;;;;;;;17.87;8.05;;;;;;;-6.76;63.69;102570.24;1864289;77;21120;-57
2023/01/10 02:18:28;;;;;;;22.65;7.92;;;;;;;-6.79;63.58;102570.05;1864222;77;21572;-58
2023/01/10 02:21:00;;;;;;;23.65;7.37;;;;;;;-6.83;63.53;102575.37;1864150;77;21086;-58
2023/01/10 02:24:04;;;;;;;15.95;6.37;;;;;;;-6.86;63.53;102576.86;1864252;77;21055;-57
2023/01/10 02:26:52;;;;;;;14.75;7.05;;;;;;;-6.88;63.63;102583.20;1864450;77;21514;-56
2023/01/10 02:29:32;;;;;;;18.70;7.58;;;;;;;-6.90;63.70;102580.03;1864829;77;21533;-60
2023/01/10 02:32:16;;;;;;;12.68;5.15;;;;;;;-6.92;63.70;102580.34;1871905;76;21514;-55
2023/01/10 02:34:56;;;;;;;19.02;6.55;;;;;;;-6.94;63.68;102580.64;1870928;75;21106;-58
2023/01/10 02:37:51;;;;;;;16.32;8.40;;;;;;;-6.99;63.72;102585.09;1870529;77;21166;-57
2023/01/10 02:40:20;;;;;;;;;;;;;;;-7.05;63.77;102597.48;1872398;77;21510;-57
2023/01/10 02:43:19;;;;;;;23.07;7.92;;;;;;;-7.05;63.76;102594.05;1869134;77;20180;-56
2023/01/10 02:45:56;;;;;;;15.85;7.83;;;;;;;-7.12;63.85;102592.77;1870174;77;21486;-57
2023/01/10 02:48:25;;;;;;;19.20;7.67;;;;;;;-7.18;64.11;102599.67;1873511;75;21073;-58
2023/01/10 02:51:12;;;;;;;15.43;7.97;;;;;;;-7.21;64.25;102598.59;1903186;75;21069;-57
2023/01/10 02:53:43;;;;;;;15.32;7.28;;;;;;;-7.21;64.28;102601.16;1895312;73;21547;-52
2023/01/10 02:56:50;;;;;;;8.80;5.55;;;;;;;-7.19;64.15;102600.88;1882706;75;21035;-53
2023/01/10 02:59:40;;;;;;;18.37;7.03;;;;;;;-7.22;64.18;102609.23;1863607;77;21538;-54
2023/01/10 03:02:26;;;;;;;11.85;6.35;;;;;;;-7.26;64.30;102610.23;1863650;77;21126;-53
2023/01/10 03:05:13;;;;;;;18.07;6.10;;;;;;;-7.24;64.34;102608.25;1864379;77;21107;-56
2023/01/10 03:07:56;;;;;;;7.58;5.17;;;;;;;-7.20;64.25;102622.14;1864582;76;21491;-56
2023/01/10 03:10:46;;;;;;;15.00;5.78;;;;;;;-7.15;64.05;102625.00;1864810;76;21196;-56
2023/01/10 03:13:27;;;;;;;16.80;8.40;;;;;;;-7.11;63.95;102624.41;1863742;77;21063;-57
2023/01/10 03:15:58;;;;;;;8.90;5.58;;;;;;;-7.03;63.79;102625.36;1864501;76;21036;-56
2023/01/10 03:18:35;;;;;;;22.00;5.62;;;;;;;-6.96;63.70;102624.48;1864717;76;21439;-56
2023/01/10 03:21:06;;;;;;;12.13;5.30;;;;;;;-6.93;63.67;102625.93;1864375;76;21189;-56
2023/01/10 03:23:35;;;;;;;21.00;6.67;;;;;;;-6.99;63.84;102633.75;1864466;77;21208;-57
2023/01/10 03:26:07;;;;;;;10.82;4.67;;;;;;;-7.05;64.07;102637.18;1864557;77;21028;-56
2023/01/10 03:28:51;;;;;;;24.82;5.87;;;;;;;-7.02;64.15;102638.66;1864518;77;21099;-56
2023/01/10 03:31:25;;;;;;;18.48;6.92;;;;;;;-7.00;64.16;102642.61;1856928;77;21294;-56
2023/01/10 03:33:55;;;;;;;16.48;5.45;;;;;;;-6.98;64.17;102641.03;1860148;76;21172;-56
2023/01/10 03:36:32;;;;;;;11.50;5.72;;;;;;;-6.97;64.31;102647.02;1864486;77;21837;-56
2023/01/10 03:39:16;;;;;;;15.10;4.83;;;;;;;-6.96;64.37;102642.41;1859284;75;21128;-56
2023/01/10 03:42:15;;;;;;;5.03;2.35;;;;;;;-6.92;64.23;102655.48;1863197;77;21173;-56
2023/01/10 03:45:02;;;;;;;9.35;3.50;;;;;;;-6.91;64.05;102648.71;1863479;76;21604;-56
2023/01/10 03:47:37;;;;;;;17.52;4.92;;;;;;;-6.94;63.80;102650.66;1864407;75;21235;-56
2023/01/10 03:50:21;;;;;;;14.87;6.30;;;;;;;-6.95;63.79;102647.63;1864236;77;21185;-56
2023/01/10 03:52:49;;;;;;;8.25;3.02;;;;;;;-6.97;63.83;102655.98;1864594;77;21238;-56
2023/01/10 03:55:24;;;;;;;17.30;5.62;;;;;;;-6.99;63.75;102658.08;1869441;75;21036;-51
2023/01/10 03:57:53;;;;;;;10.90;5.30;;;;;;;-7.01;63.74;102658.38;1896751;75;21447;-51
2023/01/10 04:00:23;;;;;;;20.92;5.35;;;;;;;-7.02;63.73;102666.83;1896716;75;21047;-56
2023/01/10 04:02:51;;;;;;;23.65;6.40;;;;;;;-7.02;63.71;102670.67;1896703;75;21142;-54
2023/01/10 04:05:20;;;;;;;9.28;3.98;;;;;;;-7.05;63.75;102676.88;1893264;75;21059;-56
2023/01/10 04:07:49;;;;;;;27.42;5.60;;;;;;;-7.07;63.83;102675.02;1864542;76;21219;-56
2023/01/10 04:10:18;;;;;;;11.75;4.62;;;;;;;-7.09;63.83;102690.27;1864622;76;21556;-56
2023/01/10 04:12:46;;;;;;;14.83;5.83;;;;;;;-7.08;63.86;102679.26;1864625;77;21216;-49
2023/01/10 04:15:15;;;;;;;3.92;2.20;;;;;;;-7.09;63.80;102671.06;1864634;76;21095;-50
2023/01/10 04:17:44;;;;;;;8.83;3.87;;;;;;;-7.12;63.83;102676.39;1863441;76;21196;-51
2023/01/10 04:20:13;;;;;;;7.37;3.92;;;;;;;-7.15;63.85;102679.65;1863039;77;21134;-52
2023/01/10 04:22:42;;;;;;;9.50;4.42;;;;;;;-7.16;63.84;102685.55;1863160;77;21588;-57
2023/01/10 04:25:11;;;;;;;11.33;4.80;;;;;;;-7.16;63.82;102689.38;1863079;77;21083;-57
2023/01/10 04:27:39;;;;;;;27.27;6.22;;;;;;;-7.17;63.80;102691.47;1863648;77;21184;-57
2023/01/10 04:30:09;;;;;;;11.35;5.03;;;;;;;-7.18;63.75;102682.88;1864537;77;21063;-57
2023/01/10 04:32:38;;;;;;;12.23;5.45;;;;;;;-7.18;63.75;102687.13;1864445;77;21204;-51
2023/01/10 04:35:07;;;;;;;18.23;6.60;;;;;;;-7.22;63.82;102693.72;1864689;77;21079;-51
2023/01/10 04:37:36;;;;;;;24.37;6.55;;;;;;;-7.22;63.89;102692.84;1864589;77;21099;-50
2023/01/10 04:40:06;;;;;;;9.70;4.72;;;;;;;-7.23;63.93;102702.57;1864621;76;21058;-50
2023/01/10 04:42:35;;;;;;;18.07;5.62;;;;;;;-7.24;63.99;102703.38;1864627;76;21055;-49
2023/01/10 04:45:04;;;;;;;14.18;6.65;;;;;;;-7.25;63.96;102702.86;1864564;77;21573;-53
2023/01/10 04:47:33;;;;;;;14.15;5.75;;;;;;;-7.25;64.03;102703.78;1864463;77;21067;-53
2023/01/10 04:50:01;;;;;;;17.40;5.83;;;;;;;-7.23;64.00;102706.41;1868575;77;21289;-53
2023/01/10 04:52:30;;;;;;;12.68;4.35;;;;;;;-7.25;63.96;102706.70;1870693;77;21079;-53
2023/01/10 04:54:59;;;;;;;9.33;3.37;;;;;;;-7.25;63.94;102711.83;1871348;75;21801;-54
2023/01/10 04:57:27;;;;;;;11.22;4.17;;;;;;;-7.25;64.02;102721.70;1903042;75;21040;-55
2023/01/10 04:59:56;;;;;;;2.95;2.67;;;;;;;-7.25;63.97;102722.06;1878361;75;21141;-54
2023/01/10 05:02:25;;;;;;;9.30;3.15;;;;;;;-7.25;63.93;102714.39;1870584;77;21142;-53
2023/01/10 05:04:53;;;;;;;10.15;2.67;;;;;;;-7.27;63.98;102712.13;1870580;77;21173;-53
2023/01/10 05:07:22;;;;;;;11.95;4.25;;;;;;;-7.26;63.94;102717.75;1870566;77;21596;-54
2023/01/10 05:09:50;;;;;;;15.80;3.67;;;;;;;-7.26;63.85;102717.34;1870613;77;21114;-53
2023/01/10 05:12:19;;;;;;;4.95;2.17;;;;;;;-7.24;63.82;102718.73;1870611;77;21118;-55
2023/01/10 05:14:48;;;;;;;10.70;4.75;;;;;;;-7.23;63.82;102716.65;1870669;77;21130;-54
2023/01/10 05:17:16;;;;;;;11.30;2.80;;;;;;;-7.23;63.80;102721.77;1870524;77;21098;-54
2023/01/10 05:19:45;;;;;;;10.88;5.47;;;;;;;-7.19;63.83;102727.61;1870604;77;21059;-52
2023/01/10 05:22:14;;;;;;;13.72;4.75;;;;;;;-7.12;63.88;102728.88;1870648;77;21133;-53
2023/01/10 05:24:43;;;;;;;3.67;2.17;;;;;;;-7.01;63.85;102731.73;1870575;77;21199;-51
2023/01/10 05:27:11;;;;;;;11.48;2.72;;;;;;;-6.86;63.71;102736.95;1870698;77;21055;-53
2023/01/10 05:29:40;;;;;;;7.37;2.83;;;;;;;-6.72;63.59;102733.60;1870450;77;21190;-52
2023/01/10 05:32:09;;;;;;;4.60;3.20;;;;;;;-6.56;63.42;102728.19;1839515;77;21615;-53
2023/01/10 05:34:38;;;;;;;10.03;5.47;;;;;;;-6.36;63.22;102736.72;1870604;77;21161;-52
2023/01/10 05:37:07;;;;;;;7.30;2.47;;;;;;;-6.13;63.00;102727.86;1870617;77;21168;-53
2023/01/10 05:39:35;;;;;;;4.75;3.98;;;;;;;-5.82;62.71;102725.84;1870528;77;21114;-53
2023/01/10 05:42:04;;;;;;;6.42;3.20;;;;;;;-5.51;62.31;102726.38;1870658;77;21035;-52
2023/01/10 05:44:33;;;;;;;2.92;2.65;;;;;;;-5.21;61.76;102722.53;1870810;77;21667;-52
2023/01/10 05:47:02;;;;;;;21.23;6.53;;;;;;;-4.84;61.29;102724.20;1870662;77;21129;-53
2023/01/10 05:49:30;;;;;;;18.92;6.20;;;;;;;-4.47;60.75;102727.50;1867659;76;21287;-55
2023/01/10 05:51:59;;;;;;;19.48;6.92;;;;;;;-4.12;60.33;102722.96;1864609;77;21573;-53
2023/01/10 05:54:28;;;;;;;10.63;4.35;;;;;;;-3.75;59.77;102721.02;1864623;77;21197;-54
2023/01/10 05:56:57;;;;;;;7.90;4.28;;;;;;;-3.41;59.20;102717.98;1891571;75;21165;-54
2023/01/10 05:59:26;;;;;;;13.55;5.22;;;;;;;-3.07;58.25;102725.69;1889208;75;21217;-54
2023/01/10 06:01:55;;;;;;;6.90;4.30;;;;;;;-2.74;57.51;102729.00;1864542;77;21071;-55
2023/01/10 06:04:23;;;;;;;4.15;2.55;;;;;;;-2.33;56.78;102726.59;1864554;76;21157;-53
2023/01/10 06:06:52;;;;;;;6.35;3.02;;;;;;;-2.00;55.50;102718.19;1864628;77;21063;-56
2023/01/10 06:09:21;;;;;;;16.27;5.62;;;;;;;-1.71;55.02;102716.01;1864490;77;21114;-55
2023/01/10 06:11:49;;;;;;;5.53;2.70;;;;;;;-1.44;53.17;102721.86;1864582;77;21099;-49
2023/01/10 06:14:18;;;;;;;3.02;1.67;;;;;;;-1.19;53.14;102682.42;1864563;77;21188;-57
2023/01/10 06:16:47;;;;;;;9.18;4.92;;;;;;;-1.07;52.00;102703.61;1864429;77;21059;-57
2023/01/10 06:19:16;;;;;;;5.22;2.98;;;;;;;-0.77;51.44;102708.23;1864477;77;21197;-57
2023/01/10 06:21:44;;;;;;;16.07;5.10;;;;;;;-0.46;51.14;102710.30;1864703;77;21055;-56
2023/01/10 06:24:13;;;;;;;8.08;3.87;;;;;;;-0.17;50.54;102719.55;1864598;77;21118;-57
2023/01/10 06:26:42;;;;;;;8.05;3.98;;;;;;;-0.01;49.08;102721.87;1864570;77;21165;-57
2023/01/10 06:29:11;;;;;;;11.35;4.25;;;;;;;0.06;48.32;102728.17;1864408;77;21146;-58
2023/01/10 06:31:39;;;;;;;8.58;4.45;;;;;;;0.31;48.04;102727.31;1864636;77;21442;-50
2023/01/10 06:34:08;;;;;;;13.70;3.40;;;;;;;0.42;47.19;102713.44;1864484;77;21132;-52
2023/01/10 06:36:36;;;;;;;12.68;4.47;;;;;;;0.66;47.25;102705.61;1864571;76;21032;-56
2023/01/10 06:39:05;;;;;;;5.90;3.52;;;;;;;0.78;46.66;102717.25;1864502;77;21197;-55
2023/01/10 06:41:34;;;;;;;15.25;6.03;;;;;;;0.97;46.29;102719.59;1864692;77;21039;-56
2023/01/10 06:44:02;;;;;;;12.28;4.25;;;;;;;1.15;46.02;102717.58;1864516;77;21643;-56
2023/01/10 06:46:31;;;;;;;5.92;3.27;;;;;;;1.49;46.10;102725.10;1864561;77;21071;-56
2023/01/10 06:49:00;;;;;;;3.02;2.22;;;;;;;1.52;44.37;102728.23;1864641;77;21212;-55
2023/01/10 06:51:28;;;;;;;11.18;3.85;;;;;;;1.70;44.51;102738.30;1870255;77;21107;-56
2023/01/10 06:53:57;;;;;;;6.33;2.77;;;;;;;2.00;44.26;102731.80;1870616;77;21130;-56
2023/01/10 06:56:26;;;;;;;13.32;2.85;;;;;;;2.35;44.45;102727.12;1890652;75;21140;-57
2023/01/10 06:58:54;;;;;;;10.05;4.22;;;;;;;2.60;43.82;102726.92;1903094;75;21102;-56
2023/01/10 07:01:24;;;;;;;8.50;3.87;;;;;;;2.95;43.71;102726.94;1878060;75;21086;-56
2023/01/10 07:03:52;;;;;;;8.63;3.50;;;;;;;3.18;42.66;102736.58;1870325;77;21639;-56
2023/01/10 07:06:21;;;;;;;9.65;4.17;;;;;;;2.89;41.45;102727.63;1839547;78;21070;-56
2023/01/10 07:08:49;;;;;;;11.30;5.53;;;;;;;2.93;41.00;102721.21;1839475;78;21196;-55
2023/01/10 07:11:18;;;;;;;11.73;4.45;;;;;;;3.07;41.20;102711.59;1839608;77;21194;-54
2023/01/10 07:13:47;;;;;;;8.08;3.55;;;;;;;3.25;40.12;102719.39;1857688;77;21538;-54
2023/01/10 07:16:16;;;;;;;9.75;3.00;;;;;;;3.28;39.97;102713.83;1870663;77;21099;-56
2023/01/10 07:18:45;;;;;;;8.50;4.10;;;;;;;3.47;39.90;102719.45;1870449;76;22313;-56
2023/01/10 07:21:15;;;;;;;13.20;5.03;;;;;;;3.59;39.10;102721.00;1870532;77;21059;-56
2023/01/10 07:23:44;;;;;;;11.10;4.97;;;;;;;3.50;38.30;102725.13;1870612;77;21125;-56
2023/01/10 07:26:16;;;;;;;13.98;4.33;;;;;;;3.68;38.79;102717.72;1870626;77;21054;-56
2023/01/10 07:28:44;;;;;;;12.00;4.95;;;;;;;3.81;37.95;102715.81;1870456;76;21051;-56
2023/01/10 07:31:13;;;;;;;9.95;5.37;;;;;;;3.97;38.33;102721.36;1869419;77;21191;-55
2023/01/10 07:33:42;;;;;;;7.53;3.95;;;;;;;4.15;37.48;102723.03;1870644;77;21552;-56
2023/01/10 07:36:11;;;;;;;7.10;3.72;;;;;;;4.24;37.82;102716.69;1870544;77;21629;-56
2023/01/10 07:38:40;;;;;;;11.43;3.50;;;;;;;4.62;37.58;102720.83;1870586;77;21170;-56
2023/01/10 07:41:09;;;;;;;8.45;4.33;;;;;;;4.82;36.94;102714.65;1870592;76;21148;-58
2023/01/10 07:43:38;;;;;;;10.58;3.92;;;;;;;4.76;36.26;102721.95;1870512;77;21106;-54
2023/01/10 07:46:08;;;;;;;10.05;4.40;;;;;;;4.88;36.13;102725.18;1839482;77;21055;-57
2023/01/10 07:48:37;;;;;;;12.68;5.08;;;;;;;4.97;35.59;102728.37;1870544;77;22358;-57
2023/01/10 07:51:06;;;;;;;9.60;3.98;;;;;;;4.93;35.60;102722.66;1867534;76;21103;-58
2023/01/10 07:53:35;;;;;;;10.50;3.30;;;;;;;4.95;35.02;102719.64;1864468;77;21146;-58
2023/01/10 07:56:04;;;;;;;9.23;4.03;;;;;;;5.09;35.05;102721.15;1879651;75;21008;-57
2023/01/10 07:58:33;;;;;;;13.75;5.62;;;;;;;5.20;34.67;102722.19;1896765;75;21040;-57
2023/01/10 08:01:04;;;;;;;14.87;4.92;;;;;;;5.21;34.82;102714.81;1896737;75;21109;-57
2023/01/10 08:03:33;;;;;;;11.97;4.72;;;;;;;5.62;34.94;102713.20;1876139;75;21463;-57
2023/01/10 08:06:06;;;;;;;16.30;6.35;;;;;;;6.01;34.90;102717.20;1864592;77;21098;-57
2023/01/10 08:08:35;;;;;;;12.47;4.65;;;;;;;6.70;35.17;102709.19;1864682;76;21130;-57
2023/01/10 08:11:04;;;;;;;6.28;2.77;;;;;;;7.09;34.10;102710.36;1864592;77;21063;-57
2023/01/10 08:13:33;;;;;;;10.10;3.47;;;;;;;6.87;34.44;102711.50;1864314;76;21126;-57
2023/01/10 08:16:05;;;;;;;6.92;3.20;;;;;;;6.14;34.21;102708.66;1864523;77;21102;-54
2023/01/10 08:18:34;;;;;;;9.98;4.33;;;;;;;6.15;33.94;102702.55;1864390;77;21031;-54
2023/01/10 08:21:02;;;;;;;14.00;5.58;;;;;;;6.34;33.50;102703.63;1864497;77;21142;-57
2023/01/10 08:23:31;;;;;;;6.12;3.12;;;;;;;6.52;33.21;102704.22;1864329;75;21141;-57
2023/01/10 08:26:01;;;;;;;8.30;2.80;;;;;;;7.09;33.41;102709.05;1833593;77;21137;-57
2023/01/10 08:28:29;;;;;;;14.85;5.53;;;;;;;7.22;32.75;102704.77;1833656;78;21525;-57
2023/01/10 08:30:58;;;;;;;6.25;3.60;;;;;;;7.49;32.67;102700.13;1833639;78;21090;-56
2023/01/10 08:33:27;;;;;;;19.32;5.62;;;;;;;7.92;32.20;102701.61;1845590;77;21023;-56
2023/01/10 08:35:55;;;;;;;6.30;3.12;;;;;;;7.80;32.08;102689.34;1886973;75;21053;-57
2023/01/10 08:38:24;;;;;;;10.45;3.92;;;;;;;8.09;32.24;102686.78;1903011;75;21109;-58
2023/01/10 08:40:54;;;;;;;6.67;3.20;;;;;;;8.00;31.50;102685.45;1892626;75;21047;-57
2023/01/10 08:43:23;;;;;;;12.25;4.37;;;;;;;8.19;31.39;102692.95;1882157;75;21117;-57
2023/01/10 08:45:51;;;;;;;15.98;4.62;;;;;;;8.07;31.19;102688.53;1903014;75;21109;-57
2023/01/10 08:48:20;;;;;;;7.08;3.50;;;;;;;8.19;31.12;102689.43;1870912;75;21137;-57
2023/01/10 08:50:48;;;;;;;9.40;4.83;;;;;;;8.43;31.11;102680.34;1864842;76;21110;-56
2023/01/10 08:53:17;;;;;;;12.45;5.35;;;;;;;8.27;30.20;102669.34;1870475;77;21304;-57
2023/01/10 08:55:47;;;;;;;9.78;4.55;;;;;;;7.70;29.72;102673.99;1881795;75;21039;-58
2023/01/10 08:58:16;;;;;;;7.55;4.28;;;;;;;7.42;29.99;102673.00;1903092;75;21122;-57
2023/01/10 09:00:45;;;;;;;16.70;5.25;;;;;;;7.46;30.29;102660.34;1872850;75;21148;-57
2023/01/10 09:03:14;;;;;;;11.55;4.65;;;;;;;7.53;30.50;102654.27;1870660;77;21106;-57
2023/01/10 09:05:43;;;;;;;10.40;4.58;;;;;;;7.73;30.32;102661.34;1870666;77;21015;-56
2023/01/10 09:08:11;;;;;;;11.35;4.40;;;;;;;7.83;30.34;102643.88;1870616;77;21114;-57
2023/01/10 09:10:40;;;;;;;8.78;3.52;;;;;;;8.05;30.54;102649.61;1870642;77;21141;-58
2023/01/10 09:13:09;;;;;;;9.00;4.05;;;;;;;8.27;30.13;102633.47;1870669;77;21174;-57
2023/01/10 09:15:38;;;;;;;11.55;5.00;;;;;;;8.05;29.45;102629.94;1870720;77;21043;-57
2023/01/10 09:18:08;;;;;;;9.53;4.92;;;;;;;7.91;29.57;102627.72;1870521;77;21507;-59
2023/01/10 09:20:38;;;;;;;13.30;5.45;;;;;;;7.98;29.84;102620.30;1870695;77;21664;-56
2023/01/10 09:23:19;;;;;;;11.08;5.50;;;;;;;8.08;29.63;102627.77;1870667;77;21063;-57
2023/01/10 09:25:47;;;;;;;7.85;3.25;;;;;;;8.12;29.32;102612.02;1870144;76;21137;-56
2023/01/10 09:28:15;;;;;;;8.15;3.30;;;;;;;8.07;29.54;102616.38;1869392;76;21557;-56
2023/01/10 09:30:45;;;;;;;11.60;5.05;;;;;;;8.16;29.53;102611.59;1870600;75;21027;-57
2023/01/10 09:33:14;;;;;;;10.55;4.17;;;;;;;8.41;29.25;102608.97;1870587;77;21510;-57
2023/01/10 09:35:43;;;;;;;4.83;3.10;;;;;;;8.24;29.41;102604.59;1870792;76;21457;-59
2023/01/10 09:38:15;;;;;;;14.83;4.90;;;;;;;8.76;29.57;102607.68;1870671;77;21543;-58
2023/01/10 09:41:01;;;;;;;8.55;5.33;;;;;;;8.99;29.47;102593.62;1870617;75;21144;-57
2023/01/10 09:43:48;;;;;;;11.57;4.65;;;;;;;8.88;28.58;102591.01;1870529;76;21160;-57
2023/01/10 09:46:52;;;;;;;5.80;2.95;;;;;;;8.69;28.71;102587.11;1871072;76;21058;-57
2023/01/10 09:49:53;;;;;;;5.08;2.77;;;;;;;8.50;29.03;102584.05;1871663;76;21078;-57
2023/01/10 09:52:37;;;;;;;9.53;3.72;;;;;;;8.55;28.84;102582.75;1868960;75;21629;-56
2023/01/10 09:55:21;;;;;;;8.95;4.05;;;;;;;8.52;28.93;102576.18;1866850;75;21112;-57
2023/01/10 09:57:52;;;;;;;6.20;2.98;;;;;;;8.45;29.06;102567.01;1896812;75;21067;-55
2023/01/10 10:00:24;;;;;;;7.55;4.08;;;;;;;8.95;29.03;102557.73;1877357;75;21489;-58
2023/01/10 10:02:55;;;;;;;8.13;3.85;;;;;;;8.89;28.77;102543.72;1862524;76;21062;-56
2023/01/10 10:05:28;;;;;;;9.43;3.87;;;;;;;8.81;28.72;102540.67;1864510;77;21051;-57
2023/01/10 10:08:01;;;;;;;12.68;4.47;;;;;;;8.71;28.95;102529.33;1864014;77;21146;-56
2023/01/10 10:10:41;;;;;;;10.40;3.67;;;;;;;8.74;28.76;102529.75;1864248;77;21569;-56
2023/01/10 10:13:22;;;;;;;8.48;3.83;;;;;;;8.77;28.96;102524.05;1864483;77;21100;-55
2023/01/10 10:16:01;;;;;;;11.95;4.47;;;;;;;8.73;28.85;102518.37;1862174;76;21030;-55
2023/01/10 10:18:35;;;;;;;11.20;4.67;;;;;;;9.05;28.95;102518.25;1864479;77;21089;-57
2023/01/10 10:21:09;;;;;;;10.13;5.55;;;;;;;8.94;28.74;102509.98;1862582;77;21534;-58
2023/01/10 10:23:53;;;;;;;10.38;4.47;;;;;;;8.91;28.95;102511.30;1864429;77;21136;-52
2023/01/10 10:26:35;;;;;;;9.85;3.55;;;;;;;8.48;28.74;102521.48;1864608;77;21143;-52
2023/01/10 10:29:28;;;;;;;9.20;4.35;;;;;;;8.26;28.83;102518.88;1864448;76;21137;-59
2023/01/10 10:32:16;;;;;;;14.58;3.37;;;;;;;8.06;28.99;102518.89;1862517;76;21137;-51
2023/01/10 10:34:51;;;;;;;7.50;3.60;;;;;;;7.98;29.31;102508.81;1864554;77;21114;-58
2023/01/10 10:37:36;;;;;;;16.62;6.42;;;;;;;7.97;29.33;102513.64;1863399;75;21114;-58
2023/01/10 10:40:04;;;;;;;14.38;4.42;;;;;;;7.81;29.19;102511.88;1863519;76;21095;-57
2023/01/10 10:42:38;;;;;;;12.60;4.80;;;;;;;7.69;29.63;102512.72;1864307;76;21055;-58
2023/01/10 10:45:12;;;;;;;14.50;4.78;;;;;;;7.63;29.95;102515.34;1864567;77;21047;-58
2023/01/10 10:47:48;;;;;;;7.85;3.65;;;;;;;6.62;30.66;102522.38;1842015;77;21103;-57
2023/01/10 10:50:35;;;;;;;13.70;4.42;;;;;;;6.41;30.92;102519.20;1864285;77;21115;-56
2023/01/10 10:53:05;;;;;;;8.58;4.28;;;;;;;6.72;30.44;102513.72;1864396;77;21079;-57
2023/01/10 10:55:37;;;;;;;11.53;3.95;;;;;;;6.66;30.14;102512.36;1872965;75;21107;-57
2023/01/10 10:58:09;;;;;;;4.33;2.30;;;;;;;6.73;30.27;102506.30;1896607;75;21203;-57
2023/01/10 11:00:38;;;;;;;8.88;3.35;;;;;;;7.09;30.35;102511.28;1896803;75;21196;-57
2023/01/10 11:03:09;;;;;;;9.15;4.58;;;;;;;7.17;30.09;102516.09;1862455;75;21047;-61
2023/01/10 11:05:41;;;;;;;6.03;2.62;;;;;;;6.91;30.00;102517.30;1876939;75;21176;-49
2023/01/10 11:08:12;;;;;;;5.60;3.52;;;;;;;6.87;30.26;102516.41;1902822;75;21097;-54
2023/01/10 11:10:56;;;;;;;9.10;3.50;;;;;;;6.93;30.28;102520.39;1889725;75;21106;-55
2023/01/10 11:13:34;;;;;;;4.30;2.42;;;;;;;6.95;30.20;102517.34;1864570;77;21052;-57
2023/01/10 11:16:07;;;;;;;8.30;3.35;;;;;;;6.86;30.29;102515.98;1864476;77;21157;-56
2023/01/10 11:18:37;;;;;;;9.65;4.58;;;;;;;6.92;30.43;102523.86;1864633;76;21178;-56
2023/01/10 11:21:14;;;;;;;9.88;3.17;;;;;;;6.70;30.31;102522.88;1864478;77;21020;-57
2023/01/10 11:23:54;;;;;;;9.20;2.58;;;;;;;6.57;30.54;102527.16;1841922;77;21200;-56
2023/01/10 11:26:33;;;;;;;5.72;2.58;;;;;;;6.52;30.57;102526.25;1831972;78;21425;-57
2023/01/10 11:29:16;;;;;;;6.35;3.62;;;;;;;6.15;30.62;102539.06;1831862;78;21133;-56
2023/01/10 11:31:46;;;;;;;6.87;4.12;;;;;;;5.34;31.66;102530.41;1832039;78;21150;-54
2023/01/10 11:34:37;;;;;;;6.00;3.00;;;;;;;4.94;32.55;102536.03;1831831;77;21220;-54
2023/01/10 11:37:18;;;;;;;11.53;4.87;;;;;;;5.39;31.90;102537.44;1831770;78;21114;-53
2023/01/10 11:39:46;;;;;;;8.60;3.77;;;;;;;5.76;31.61;102536.95;1831875;77;21060;-53
2023/01/10 11:42:30;;;;;;;10.03;3.52;;;;;;;5.88;31.35;102547.94;1831884;78;21558;-51
2023/01/10 11:45:20;;;;;;;9.40;2.62;;;;;;;5.63;31.37;102538.56;1823640;76;21244;-53
2023/01/10 11:47:53;;;;;;;5.87;2.95;;;;;;;5.69;31.64;102533.39;1832001;78;21676;-55
2023/01/10 11:50:27;;;;;;;1.55;1.10;;;;;;;5.49;31.79;102541.45;1831897;77;21039;-56
2023/01/10 11:52:56;;;;;;;2.95;2.45;;;;;;;5.40;32.17;102537.89;1832543;77;21055;-56
2023/01/10 11:55:28;;;;;;;6.65;2.83;;;;;;;5.38;32.37;102536.97;1847942;77;21091;-52
2023/01/10 11:58:12;;;;;;;10.95;2.27;;;;;;;5.12;32.28;102536.67;1870504;77;21126;-51